createdAt,value
2022-08-30T00:01:33.072Z,98162.97
2022-08-30T00:04:01.131Z,98159.19
2022-08-30T00:06:32.317Z,98159.13
2022-08-30T00:09:00.060Z,98161.56
2022-08-30T00:11:28.351Z,98166.94
2022-08-30T00:13:56.734Z,98161.56
2022-08-30T00:16:24.635Z,98151.59
2022-08-30T00:18:52.078Z,98157.94
2022-08-30T00:21:19.284Z,98155.16
2022-08-30T00:23:46.231Z,98151.41
2022-08-30T00:26:13.103Z,98163.16
2022-08-30T00:28:40.081Z,98154.00
2022-08-30T00:31:07.704Z,98166.66
2022-08-30T00:33:34.865Z,98162.34
2022-08-30T00:36:01.747Z,98165.03
2022-08-30T00:38:28.722Z,98161.06
2022-08-30T00:40:55.581Z,98163.53
2022-08-30T00:43:27.837Z,98163.28
2022-08-30T00:45:55.792Z,98159.66
2022-08-30T00:48:23.298Z,98154.56
2022-08-30T00:50:56.156Z,98164.66
2022-08-30T00:53:29.390Z,98159.38
2022-08-30T00:55:57.634Z,98157.72
2022-08-30T00:58:29.731Z,98160.63
2022-08-30T01:01:00.908Z,98170.38
2022-08-30T01:03:28.651Z,98166.38
2022-08-30T01:05:58.787Z,98164.31
2022-08-30T01:08:25.777Z,98165.41
2022-08-30T01:10:53.984Z,98166.84
2022-08-30T01:13:22.427Z,98164.16
2022-08-30T01:15:50.773Z,98164.88
2022-08-30T01:18:21.310Z,98150.09
2022-08-30T01:21:16.926Z,98162.13
2022-08-30T01:23:46.447Z,98163.66
2022-08-30T01:26:21.977Z,98165.66
2022-08-30T01:28:55.984Z,98161.09
2022-08-30T01:31:23.217Z,98154.97
2022-08-30T01:33:52.231Z,98162.03
2022-08-30T01:36:21.709Z,98155.56
2022-08-30T01:38:51.701Z,98158.13
2022-08-30T01:41:26.083Z,98154.34
2022-08-30T01:43:55.747Z,98155.50
2022-08-30T01:46:25.525Z,98156.44
2022-08-30T01:48:54.594Z,98149.22
2022-08-30T01:51:23.999Z,98154.25
2022-08-30T01:53:51.081Z,98155.09
2022-08-30T01:57:34.281Z,98149.56
2022-08-30T02:00:00.869Z,98147.34
2022-08-30T02:02:29.536Z,98150.94
2022-08-30T02:04:57.369Z,98148.94
2022-08-30T02:07:25.780Z,98147.84
2022-08-30T02:09:53.336Z,98156.25
2022-08-30T02:12:21.103Z,98152.44
2022-08-30T02:14:47.848Z,98149.38
2022-08-30T02:17:17.297Z,98146.94
2022-08-30T02:19:43.952Z,98146.69
2022-08-30T02:22:11.408Z,98148.13
2022-08-30T02:24:38.507Z,98155.16
2022-08-30T02:27:05.620Z,98144.72
2022-08-30T02:29:32.269Z,98155.06
2022-08-30T02:31:59.469Z,98149.66
2022-08-30T02:34:26.278Z,98152.72
2022-08-30T02:36:52.945Z,98160.00
2022-08-30T02:39:19.558Z,98154.59
2022-08-30T02:41:46.294Z,98146.97
2022-08-30T02:44:12.930Z,98145.34
2022-08-30T02:46:39.718Z,98141.56
2022-08-30T02:49:32.103Z,98135.97
2022-08-30T02:51:55.368Z,98142.56
2022-08-30T02:54:22.033Z,98140.91
2022-08-30T02:56:50.156Z,98141.94
2022-08-30T02:59:18.148Z,98140.06
2022-08-30T03:01:44.879Z,98143.53
2022-08-30T03:04:11.879Z,98134.81
2022-08-30T03:06:38.929Z,98134.75
2022-08-30T03:09:05.644Z,98149.44
2022-08-30T03:11:32.714Z,98144.97
2022-08-30T03:13:59.755Z,98138.75
2022-08-30T03:16:26.514Z,98141.81
2022-08-30T03:18:53.241Z,98134.56
2022-08-30T03:21:19.881Z,98134.94
2022-08-30T03:23:46.545Z,98141.72
2022-08-30T03:26:15.059Z,98143.59
2022-08-30T03:28:42.907Z,98142.75
2022-08-30T03:31:10.173Z,98157.22
2022-08-30T03:33:37.953Z,98146.13
2022-08-30T03:36:05.692Z,98148.66
2022-08-30T03:38:32.423Z,98151.31
2022-08-30T03:40:59.112Z,98151.03
2022-08-30T03:43:26.517Z,98155.34
2022-08-30T03:45:53.337Z,98151.50
2022-08-30T03:48:19.929Z,98153.19
2022-08-30T03:50:47.083Z,98153.44
2022-08-30T03:53:13.754Z,98159.91
2022-08-30T03:58:40.729Z,98163.09
2022-08-30T04:01:08.771Z,98161.31
2022-08-30T04:03:35.691Z,98166.13
2022-08-30T04:06:06.033Z,98172.56
2022-08-30T04:08:32.996Z,98165.16
2022-08-30T04:11:00.517Z,98173.22
2022-08-30T04:13:27.859Z,98161.56
2022-08-30T04:15:55.497Z,98171.31
2022-08-30T04:18:22.765Z,98170.50
2022-08-30T04:20:54.966Z,98171.94
2022-08-30T04:23:23.083Z,98180.69
2022-08-30T04:25:49.786Z,98182.31
2022-08-30T04:28:16.635Z,98187.03
2022-08-30T04:30:47.744Z,98187.03
2022-08-30T04:33:18.220Z,98195.03
2022-08-30T04:35:49.156Z,98181.75
2022-08-30T04:38:17.641Z,98192.66
2022-08-30T04:40:49.662Z,98200.84
2022-08-30T04:43:16.869Z,98202.44
2022-08-30T04:45:43.900Z,98197.81
2022-08-30T04:48:13.483Z,98203.50
2022-08-30T04:50:53.860Z,98215.09
2022-08-30T04:53:24.270Z,98220.13
2022-08-30T04:56:08.160Z,98214.56
2022-08-30T04:58:35.050Z,98211.09
2022-08-30T05:01:04.665Z,98217.78
2022-08-30T05:03:42.842Z,98218.34
2022-08-30T05:06:12.397Z,98212.72
2022-08-30T05:08:39.367Z,98212.22
2022-08-30T05:11:13.456Z,98216.88
2022-08-30T05:13:40.340Z,98219.94
2022-08-30T05:16:08.387Z,98220.25
2022-08-30T05:18:38.886Z,98227.66
2022-08-30T05:21:11.885Z,98224.72
2022-08-30T05:23:40.230Z,98226.94
2022-08-30T05:26:29.996Z,98219.38
2022-08-30T05:28:57.114Z,98221.59
2022-08-30T05:31:38.293Z,98226.84
2022-08-30T05:34:05.561Z,98233.44
2022-08-30T05:36:38.472Z,98228.56
2022-08-30T05:39:07.698Z,98238.19
2022-08-30T05:41:37.431Z,98232.28
2022-08-30T05:44:08.811Z,98231.66
2022-08-30T05:46:36.760Z,98235.97
2022-08-30T05:49:06.670Z,98230.38
2022-08-30T05:51:45.077Z,98240.03
2022-08-30T05:54:16.644Z,98237.75
2022-08-30T06:09:58.455Z,98232.66
2022-08-30T06:12:25.742Z,98233.63
2022-08-30T06:14:53.643Z,98236.28
2022-08-30T06:17:20.583Z,98231.28
2022-08-30T06:19:47.459Z,98239.94
2022-08-30T06:22:14.331Z,98243.88
2022-08-30T06:24:56.939Z,98239.22
2022-08-30T06:27:24.312Z,98237.00
2022-08-30T06:29:52.094Z,98240.06
2022-08-30T06:32:18.788Z,98243.78
2022-08-30T06:34:45.562Z,98247.75
2022-08-30T06:37:12.230Z,98254.34
2022-08-30T06:39:57.650Z,98255.44
2022-08-30T06:42:24.638Z,98250.53
2022-08-30T06:44:51.553Z,98251.38
2022-08-30T06:47:18.304Z,98258.19
2022-08-30T06:49:44.908Z,98258.19
2022-08-30T06:52:11.777Z,98255.97
2022-08-30T06:54:38.827Z,98257.63
2022-08-30T06:57:05.680Z,98260.09
2022-08-30T06:59:33.234Z,98262.00
2022-08-30T07:01:59.923Z,98273.44
2022-08-30T07:04:26.887Z,98268.00
2022-08-30T07:06:53.647Z,98271.00
2022-08-30T07:09:23.130Z,98272.06
2022-08-30T07:11:51.229Z,98261.44
2022-08-30T07:14:19.097Z,98269.63
2022-08-30T07:16:46.919Z,98263.91
2022-08-30T07:19:21.127Z,98260.94
2022-08-30T07:21:49.378Z,98268.25
2022-08-30T07:24:16.925Z,98267.91
2022-08-30T07:26:49.022Z,98270.03
2022-08-30T07:29:17.561Z,98268.22
2022-08-30T07:31:44.573Z,98265.03
2022-08-30T07:34:11.185Z,98269.25
2022-08-30T07:36:39.138Z,98267.00
2022-08-30T07:39:07.010Z,98269.91
2022-08-30T07:41:39.038Z,98274.97
2022-08-30T07:44:07.714Z,98274.66
2022-08-30T07:46:35.265Z,98267.91
2022-08-30T07:49:03.948Z,98276.00
2022-08-30T07:51:31.977Z,98273.09
2022-08-30T07:53:58.889Z,98270.34
2022-08-30T07:56:26.109Z,98278.28
2022-08-30T08:00:34.027Z,98281.34
2022-08-30T08:03:14.993Z,98267.97
2022-08-30T08:05:43.997Z,98282.22
2022-08-30T08:08:11.692Z,98268.00
2022-08-30T08:10:40.480Z,98282.91
2022-08-30T08:13:07.639Z,98282.19
2022-08-30T08:15:38.783Z,98277.94
2022-08-30T08:18:06.790Z,98280.69
2022-08-30T08:20:34.669Z,98285.84
2022-08-30T08:23:02.348Z,98282.81
2022-08-30T08:25:29.216Z,98277.38
2022-08-30T08:27:57.615Z,98279.72
2022-08-30T08:30:24.595Z,98281.72
2022-08-30T08:32:51.934Z,98272.09
2022-08-30T08:35:18.765Z,98282.59
2022-08-30T08:37:45.436Z,98269.88
2022-08-30T08:40:16.875Z,98271.06
2022-08-30T08:43:05.252Z,98282.16
2022-08-30T08:45:51.989Z,98282.22
2022-08-30T08:48:51.825Z,98285.19
2022-08-30T08:51:41.737Z,98272.09
2022-08-30T08:54:17.579Z,98280.81
2022-08-30T08:56:44.218Z,98282.19
2022-08-30T08:59:12.256Z,98286.41
2022-08-30T09:01:39.446Z,98291.44
2022-08-30T09:04:11.867Z,98290.72
2022-08-30T09:06:45.208Z,98286.88
2022-08-30T09:09:12.923Z,98285.75
2022-08-30T09:11:41.724Z,98290.81
2022-08-30T09:14:17.037Z,98290.72
2022-08-30T09:16:48.315Z,98302.31
2022-08-30T09:19:53.949Z,98288.56
2022-08-30T09:22:34.251Z,98295.03
2022-08-30T09:25:08.474Z,98286.41
2022-08-30T09:27:38.709Z,98292.44
2022-08-30T09:30:22.308Z,98287.22
2022-08-30T09:33:00.960Z,98295.94
2022-08-30T09:35:36.544Z,98293.94
2022-08-30T09:38:13.068Z,98287.53
2022-08-30T09:40:44.106Z,98292.59
2022-08-30T09:43:16.711Z,98291.44
2022-08-30T09:45:49.994Z,98283.47
2022-08-30T09:48:27.663Z,98284.69
2022-08-30T09:51:34.013Z,98293.72
2022-08-30T09:54:18.086Z,98294.88
2022-08-30T09:56:53.415Z,98294.41
2022-08-30T10:05:17.182Z,98295.59
2022-08-30T10:05:33.371Z,98292.75
2022-08-30T10:15:04.761Z,98296.16
2022-08-30T10:17:49.201Z,98301.78
2022-08-30T10:20:30.604Z,98301.47
2022-08-30T10:23:02.672Z,98290.25
2022-08-30T10:25:35.918Z,98291.25
2022-08-30T10:28:38.458Z,98289.22
2022-08-30T10:31:18.692Z,98291.84
2022-08-30T10:33:49.639Z,98295.06
2022-08-30T10:36:37.757Z,98285.00
2022-08-30T10:44:49.883Z,98285.44
2022-08-30T10:47:39.783Z,98288.09
2022-08-30T10:50:38.955Z,98280.53
2022-08-30T10:53:38.504Z,98270.97
2022-08-30T10:58:57.955Z,98286.16
2022-08-30T11:02:25.234Z,98277.78
2022-08-30T11:09:26.654Z,98265.84
2022-08-30T11:18:17.351Z,98270.59
2022-08-30T11:21:15.832Z,98273.22
2022-08-30T11:24:10.798Z,98268.00
2022-08-30T11:27:34.716Z,98274.97
2022-08-30T11:30:47.998Z,98280.22
2022-08-30T11:33:42.822Z,98272.41
2022-08-30T11:37:01.022Z,98273.25
2022-08-30T11:40:03.895Z,98266.97
2022-08-30T11:42:46.531Z,98266.06
2022-08-30T11:48:54.634Z,98269.53
2022-08-30T11:54:52.889Z,98270.03
2022-08-30T11:57:41.431Z,98271.53
2022-08-30T12:03:08.907Z,98250.78
2022-08-30T12:09:21.832Z,98245.09
2022-08-30T12:12:27.120Z,98256.66
2022-08-30T12:14:59.994Z,98256.78
2022-08-30T12:18:16.433Z,98248.81
2022-08-30T12:41:32.424Z,98235.03
2022-08-30T12:44:00.734Z,98242.88
2022-08-30T12:46:34.079Z,98229.81
2022-08-30T12:49:01.042Z,98232.28
2022-08-30T12:51:48.600Z,98218.81
2022-08-30T12:54:29.668Z,98217.59
2022-08-30T12:57:18.969Z,98220.22
2022-08-30T12:59:58.543Z,98214.53
2022-08-30T13:02:45.181Z,98215.16
2022-08-30T13:05:39.226Z,98212.31
2022-08-30T13:08:22.694Z,98208.56
2022-08-30T13:11:20.080Z,98205.38
2022-08-30T13:13:52.017Z,98200.91
2022-08-30T13:16:20.634Z,98204.16
2022-08-30T13:19:19.242Z,98205.59
2022-08-30T13:21:54.149Z,98206.81
2022-08-30T13:24:25.229Z,98203.22
2022-08-30T13:26:54.766Z,98202.16
2022-08-30T13:29:26.527Z,98207.16
2022-08-30T13:31:53.719Z,98206.03
2022-08-30T13:34:22.686Z,98206.03
2022-08-30T13:36:57.991Z,98208.78
2022-08-30T13:39:25.712Z,98201.94
2022-08-30T13:41:53.184Z,98209.19
2022-08-30T13:44:20.341Z,98202.72
2022-08-30T13:46:54.627Z,98205.56
2022-08-30T13:49:44.231Z,98201.28
2022-08-30T13:52:22.520Z,98198.53
2022-08-30T13:54:51.837Z,98200.94
2022-08-30T14:03:31.173Z,98198.00
2022-08-30T14:06:29.170Z,98197.69
2022-08-30T14:08:48.082Z,98189.09
2022-08-30T14:11:19.717Z,98190.91
2022-08-30T14:16:39.896Z,98191.66
2022-08-30T14:19:08.357Z,98190.34
2022-08-30T14:21:35.847Z,98188.56
2022-08-30T14:24:04.851Z,98183.78
2022-08-30T14:26:35.805Z,98188.22
2022-08-30T14:29:09.240Z,98178.44
2022-08-30T14:31:37.691Z,98182.34
2022-08-30T14:34:05.718Z,98185.44
2022-08-30T14:36:34.105Z,98171.88
2022-08-30T14:39:01.160Z,98166.75
2022-08-30T14:41:27.949Z,98162.63
2022-08-30T14:43:54.558Z,98169.44
2022-08-30T14:46:22.152Z,98169.94
2022-08-30T14:48:50.369Z,98169.34
2022-08-30T14:51:20.759Z,98172.47
2022-08-30T14:53:48.644Z,98178.63
2022-08-30T14:56:17.162Z,98172.47
2022-08-30T14:58:48.128Z,98174.81
2022-08-30T15:01:14.876Z,98179.63
2022-08-30T15:03:42.204Z,98178.94
2022-08-30T15:06:09.286Z,98177.88
2022-08-30T15:08:36.462Z,98183.41
2022-08-30T15:11:11.314Z,98178.81
2022-08-30T15:13:38.303Z,98178.28
2022-08-30T15:16:14.586Z,98179.59
2022-08-30T15:18:41.702Z,98175.75
2022-08-30T15:21:08.971Z,98180.44
2022-08-30T15:23:36.744Z,98179.59
2022-08-30T15:26:04.194Z,98175.75
2022-08-30T15:28:31.380Z,98172.78
2022-08-30T15:30:58.361Z,98176.94
2022-08-30T15:33:25.662Z,98172.63
2022-08-30T15:35:52.807Z,98179.06
2022-08-30T15:38:21.917Z,98172.56
2022-08-30T15:40:50.208Z,98171.22
2022-08-30T15:43:17.882Z,98178.91
2022-08-30T15:45:45.296Z,98169.09
2022-08-30T15:48:12.382Z,98173.00
2022-08-30T15:50:39.253Z,98169.22
2022-08-30T15:53:07.393Z,98171.72
2022-08-30T15:55:34.274Z,98166.00
2022-08-30T15:58:00.924Z,98171.22
2022-08-30T16:00:27.712Z,98167.69
2022-08-30T16:04:35.159Z,98162.50
2022-08-30T16:07:01.886Z,98164.41
2022-08-30T16:09:30.060Z,98162.25
2022-08-30T16:11:59.899Z,98159.59
2022-08-30T16:14:27.691Z,98159.63
2022-08-30T16:16:55.378Z,98164.63
2022-08-30T16:19:22.153Z,98162.59
2022-08-30T16:21:49.015Z,98164.56
2022-08-30T16:24:18.761Z,98161.91
2022-08-30T16:26:49.496Z,98167.19
2022-08-30T16:29:16.209Z,98158.81
2022-08-30T16:31:44.504Z,98164.31
2022-08-30T16:34:12.966Z,98162.75
2022-08-30T16:36:39.853Z,98169.63
2022-08-30T16:39:08.683Z,98162.28
2022-08-30T16:41:36.898Z,98164.75
2022-08-30T16:44:05.251Z,98164.81
2022-08-30T16:46:33.337Z,98166.47
2022-08-30T16:49:03.548Z,98177.13
2022-08-30T16:51:33.122Z,98167.31
2022-08-30T16:54:04.456Z,98170.06
2022-08-30T16:56:35.096Z,98167.09
2022-08-30T16:59:03.372Z,98172.56
2022-08-30T17:01:35.027Z,98170.91
2022-08-30T17:04:02.799Z,98178.81
2022-08-30T17:06:29.799Z,98179.09
2022-08-30T17:08:56.747Z,98170.09
2022-08-30T17:11:24.272Z,98170.06
2022-08-30T17:13:51.159Z,98173.03
2022-08-30T17:16:27.912Z,98182.28
2022-08-30T17:19:00.458Z,98177.09
2022-08-30T17:21:29.267Z,98178.41
2022-08-30T17:24:01.760Z,98186.28
2022-08-30T17:26:35.259Z,98188.44
2022-08-30T17:29:02.818Z,98198.19
2022-08-30T17:31:31.090Z,98200.06
2022-08-30T17:34:03.410Z,98203.03
2022-08-30T17:36:32.501Z,98211.72
2022-08-30T17:38:59.156Z,98211.91
2022-08-30T17:41:25.764Z,98218.94
2022-08-30T17:43:53.720Z,98211.25
2022-08-30T17:46:21.114Z,98222.34
2022-08-30T17:48:47.835Z,98220.66
2022-08-30T17:51:24.573Z,98229.84
2022-08-30T17:53:51.133Z,98231.69
2022-08-30T17:56:17.966Z,98231.09
2022-08-30T17:58:44.538Z,98228.81
2022-08-30T18:01:14.429Z,98233.66
2022-08-30T18:05:30.402Z,98235.66
2022-08-30T18:07:59.063Z,98236.69
2022-08-30T18:10:34.453Z,98241.81
2022-08-30T18:13:01.319Z,98243.72
2022-08-30T18:15:29.438Z,98240.38
2022-08-30T18:17:56.024Z,98247.66
2022-08-30T18:20:22.707Z,98254.13
2022-08-30T18:22:53.302Z,98255.44
2022-08-30T18:25:20.079Z,98258.06
2022-08-30T18:27:50.263Z,98259.66
2022-08-30T18:30:31.157Z,98266.41
2022-08-30T18:33:00.467Z,98254.66
2022-08-30T18:35:27.833Z,98255.66
2022-08-30T18:37:54.563Z,98259.72
2022-08-30T18:40:21.411Z,98263.78
2022-08-30T18:42:48.178Z,98255.53
2022-08-30T18:45:15.604Z,98251.69
2022-08-30T18:47:42.631Z,98257.94
2022-08-30T18:50:09.366Z,98273.09
2022-08-30T18:52:35.968Z,98267.84
2022-08-30T18:55:02.738Z,98275.94
2022-08-30T18:57:29.315Z,98269.03
2022-08-30T18:59:57.829Z,98278.19
2022-08-30T19:02:25.102Z,98276.72
2022-08-30T19:04:54.950Z,98271.69
2022-08-30T19:07:26.695Z,98272.38
2022-08-30T19:09:59.059Z,98271.72
2022-08-30T19:12:27.620Z,98269.19
2022-08-30T19:14:54.534Z,98274.78
2022-08-30T19:17:23.995Z,98264.34
2022-08-30T19:19:52.363Z,98277.78
2022-08-30T19:22:27.424Z,98271.22
2022-08-30T19:24:57.285Z,98276.78
2022-08-30T19:27:38.431Z,98274.00
2022-08-30T19:30:10.075Z,98272.53
2022-08-30T19:32:37.127Z,98279.97
2022-08-30T19:35:04.565Z,98270.34
2022-08-30T19:37:31.528Z,98275.69
2022-08-30T19:40:01.459Z,98266.91
2022-08-30T19:42:28.571Z,98264.91
2022-08-30T19:44:55.208Z,98270.00
2022-08-30T19:47:21.883Z,98270.47
2022-08-30T19:49:48.660Z,98269.31
2022-08-30T19:52:15.422Z,98275.78
2022-08-30T19:54:42.166Z,98279.13
2022-08-30T19:57:10.438Z,98271.75
2022-08-30T19:59:38.149Z,98278.09
2022-08-30T20:02:05.540Z,98272.81
2022-08-30T20:06:36.017Z,98279.47
2022-08-30T20:09:04.186Z,98264.16
2022-08-30T20:11:30.840Z,98261.94
2022-08-30T20:13:57.677Z,98262.66
2022-08-30T20:16:33.257Z,98265.81
2022-08-30T20:19:06.147Z,98258.06
2022-08-30T20:21:32.909Z,98262.31
2022-08-30T20:24:00.966Z,98261.72
2022-08-30T20:26:33.962Z,98257.84
2022-08-30T20:29:02.655Z,98262.44
2022-08-30T20:31:29.674Z,98253.16
2022-08-30T20:33:57.133Z,98255.28
2022-08-30T20:36:24.439Z,98257.97
2022-08-30T20:38:51.236Z,98259.50
2022-08-30T20:41:20.343Z,98256.81
2022-08-30T20:43:48.878Z,98262.69
2022-08-30T20:46:18.574Z,98257.28
2022-08-30T20:48:46.453Z,98262.69
2022-08-30T20:51:18.022Z,98249.75
2022-08-30T20:53:45.119Z,98253.06
2022-08-30T20:56:18.031Z,98258.81
2022-08-30T20:58:45.472Z,98261.88
2022-08-30T21:01:12.897Z,98264.22
2022-08-30T21:03:41.130Z,98267.63
2022-08-30T21:06:08.077Z,98268.56
2022-08-30T21:08:37.578Z,98269.28
2022-08-30T21:11:04.770Z,98266.69
2022-08-30T21:13:31.751Z,98268.22
2022-08-30T21:16:03.308Z,98268.91
2022-08-30T21:18:33.123Z,98272.34
2022-08-30T21:21:13.895Z,98265.19
2022-08-30T21:23:40.777Z,98252.56
2022-08-30T21:26:08.719Z,98260.94
2022-08-30T21:28:35.596Z,98260.69
2022-08-30T21:31:12.783Z,98268.69
2022-08-30T21:33:40.691Z,98267.28
2022-08-30T21:36:26.735Z,98261.28
2022-08-30T21:38:54.068Z,98275.75
2022-08-30T21:41:26.906Z,98272.00
2022-08-30T21:43:58.149Z,98268.81
2022-08-30T21:46:29.302Z,98276.09
2022-08-30T21:48:59.381Z,98272.00
2022-08-30T21:51:25.976Z,98257.06
2022-08-30T21:53:52.561Z,98267.97
2022-08-30T21:56:22.177Z,98267.28
2022-08-30T21:58:49.208Z,98278.44
2022-08-30T22:01:25.311Z,98274.66
2022-08-30T22:03:54.811Z,98270.44
2022-08-30T22:07:32.378Z,98271.16
2022-08-30T22:10:02.176Z,98267.50
2022-08-30T22:12:28.799Z,98271.38
2022-08-30T22:14:55.353Z,98277.47
2022-08-30T22:17:28.405Z,98272.44
2022-08-30T22:19:56.976Z,98270.91
2022-08-30T22:22:26.166Z,98268.53
2022-08-30T22:24:52.763Z,98271.94
2022-08-30T22:27:19.358Z,98267.94
2022-08-30T22:29:47.028Z,98265.81
2022-08-30T22:32:13.784Z,98265.81
2022-08-30T22:34:40.752Z,98261.34
2022-08-30T22:37:08.009Z,98267.00
2022-08-30T22:39:34.573Z,98261.81
2022-08-30T22:42:01.176Z,98263.47
2022-08-30T22:44:27.778Z,98251.59
2022-08-30T22:46:54.539Z,98271.22
2022-08-30T22:49:21.156Z,98259.13
2022-08-30T22:51:47.726Z,98269.00
2022-08-30T22:54:14.292Z,98262.75
2022-08-30T22:56:41.669Z,98250.41
2022-08-30T22:59:08.924Z,98252.41
2022-08-30T23:01:42.982Z,98248.72
2022-08-30T23:04:10.463Z,98240.47
2022-08-30T23:06:37.309Z,98247.03
2022-08-30T23:09:06.357Z,98244.66
2022-08-30T23:11:33.234Z,98246.41
2022-08-30T23:14:04.808Z,98244.25
2022-08-30T23:16:32.646Z,98245.19
2022-08-30T23:18:59.898Z,98248.47
2022-08-30T23:21:28.933Z,98247.16
2022-08-30T23:24:15.196Z,98243.16
2022-08-30T23:27:02.958Z,98242.09
2022-08-30T23:29:48.947Z,98234.56
2022-08-30T23:32:34.246Z,98239.16
2022-08-30T23:35:19.237Z,98242.19
2022-08-30T23:38:05.103Z,98236.50
2022-08-30T23:40:50.427Z,98236.84
2022-08-30T23:43:35.629Z,98239.56
2022-08-30T23:46:20.864Z,98241.28
2022-08-30T23:49:07.511Z,98232.94
2022-08-30T23:51:54.352Z,98239.50
2022-08-30T23:54:39.593Z,98240.41
2022-08-30T23:57:25.066Z,98235.09
